Time;durP1;ratioP1;P1;durP2;ratioP2;P2;SDS_P1;SDS_P2;PMS_P1;PMS_P2;Temp;Humidity;BMP_temperature;BMP_pressure;BME280_temperature;BME280_humidity;BME280_pressure;Samples;Min_cycle;Max_cycle;Signal;HPM_P1;HPM_P2
2023/07/06 00:01:24;;;;;;;8.15;6.15;;;;;;;12.73;100.00;101372.97;5038052;28;20037;-73
2023/07/06 00:03:51;;;;;;;8.18;5.95;;;;;;;12.76;100.00;101377.31;5026943;28;21173;-73
2023/07/06 00:06:17;;;;;;;8.15;5.90;;;;;;;12.71;100.00;101388.22;5042381;28;20572;-70
2023/07/06 00:08:43;;;;;;;8.50;6.03;;;;;;;12.77;100.00;101384.38;5028322;28;20510;-74
2023/07/06 00:11:09;;;;;;;7.35;6.13;;;;;;;12.70;100.00;101378.47;5026217;28;20037;-71
2023/07/06 00:13:36;;;;;;;6.63;5.75;;;;;;;12.72;100.00;101384.59;5041050;28;20199;-74
2023/07/06 00:16:02;;;;;;;8.07;6.25;;;;;;;12.70;100.00;101376.66;5039456;28;20017;-69
2023/07/06 00:18:28;;;;;;;7.32;5.97;;;;;;;12.69;100.00;101376.75;5039690;28;20178;-72
2023/07/06 00:20:53;;;;;;;6.88;5.13;;;;;;;12.71;100.00;101369.53;5035275;28;20143;-74
2023/07/06 00:23:20;;;;;;;5.97;5.05;;;;;;;12.74;100.00;101380.03;5037238;28;20025;-70
2023/07/06 00:25:45;;;;;;;8.65;5.85;;;;;;;12.75;100.00;101376.44;5041862;28;20028;-73
2023/07/06 00:28:11;;;;;;;7.03;5.47;;;;;;;12.74;100.00;101374.69;5036660;28;20035;-69
2023/07/06 00:33:13;;;;;;;;;;;;;;;12.86;100.00;101381.22;5024481;28;20399;-74
2023/07/06 00:35:40;;;;;;;8.23;5.97;;;;;;;12.77;100.00;101384.38;5024366;28;19908;-70
2023/07/06 00:38:12;;;;;;;10.15;5.28;;;;;;;12.76;100.00;101375.50;5029951;28;20042;-71
2023/07/06 00:40:43;;;;;;;7.15;5.50;;;;;;;12.69;100.00;101384.75;5038310;28;20060;-73
2023/07/06 00:43:10;;;;;;;7.70;5.20;;;;;;;12.68;100.00;101377.69;5028790;28;20060;-72
2023/07/06 00:45:37;;;;;;;7.80;5.43;;;;;;;12.66;100.00;101376.88;5026197;28;20160;-69
2023/07/06 00:48:04;;;;;;;6.30;5.10;;;;;;;12.63;100.00;101377.94;5026667;28;20111;-71
2023/07/06 00:50:32;;;;;;;7.88;5.38;;;;;;;12.65;100.00;101375.16;5023127;28;20029;-73
2023/07/06 00:53:08;;;;;;;9.48;5.47;;;;;;;12.65;100.00;101380.50;5023555;28;20056;-71
2023/07/06 00:55:45;;;;;;;6.78;5.22;;;;;;;12.63;100.00;101377.94;5040033;28;20040;-71
2023/07/06 00:58:18;;;;;;;7.15;4.90;;;;;;;12.62;100.00;101369.97;5036177;28;20083;-73
2023/07/06 01:00:44;;;;;;;6.75;4.85;;;;;;;12.63;100.00;101374.41;5027341;28;20115;-71
2023/07/06 01:03:11;;;;;;;8.23;5.13;;;;;;;12.55;100.00;101377.44;5030330;28;20071;-74
2023/07/06 01:05:39;;;;;;;7.57;5.15;;;;;;;12.57;100.00;101372.88;5022428;28;20120;-72
2023/07/06 01:08:16;;;;;;;5.57;4.55;;;;;;;12.55;100.00;101382.78;5023668;28;20067;-74
2023/07/06 01:10:43;;;;;;;7.35;5.00;;;;;;;12.55;100.00;101371.25;5029007;28;20029;-74
2023/07/06 01:13:08;;;;;;;7.10;4.88;;;;;;;12.50;100.00;101370.59;5032460;28;20499;-73
2023/07/06 01:15:41;;;;;;;4.88;4.25;;;;;;;12.49;100.00;101371.53;5024077;28;20029;-70
2023/07/06 01:18:35;;;;;;;6.00;5.07;;;;;;;12.48;100.00;101367.16;5036688;28;20082;-70
2023/07/06 01:21:28;;;;;;;9.77;5.53;;;;;;;12.44;100.00;101377.97;5038076;28;20035;-74
2023/07/06 01:24:14;;;;;;;6.95;4.80;;;;;;;12.45;100.00;101376.16;5027519;28;20025;-70
2023/07/06 01:27:05;;;;;;;8.75;5.05;;;;;;;12.41;100.00;101377.25;5036799;28;20029;-69
2023/07/06 01:29:39;;;;;;;9.40;5.57;;;;;;;12.40;100.00;101379.06;5034532;28;20455;-70
2023/07/06 01:32:13;;;;;;;7.88;5.28;;;;;;;12.33;100.00;101375.00;5035261;28;20035;-75
2023/07/06 01:34:53;;;;;;;8.45;4.90;;;;;;;12.36;100.00;101373.97;5034974;28;20029;-73
2023/07/06 01:37:45;;;;;;;6.78;4.85;;;;;;;12.36;100.00;101372.16;5055177;28;20408;-75
2023/07/06 01:40:11;;;;;;;5.78;4.80;;;;;;;12.35;100.00;101373.09;5025450;28;20068;-74
2023/07/06 01:42:40;;;;;;;6.95;5.28;;;;;;;12.31;100.00;101370.66;5041023;28;20028;-74
2023/07/06 01:45:17;;;;;;;9.30;5.05;;;;;;;12.31;100.00;101371.53;5032350;28;20032;-70
2023/07/06 01:47:49;;;;;;;9.23;5.40;;;;;;;12.33;100.00;101368.78;5038067;28;20095;-72
2023/07/06 01:50:19;;;;;;;8.88;5.15;;;;;;;12.24;100.00;101366.56;5022906;28;20040;-70
2023/07/06 01:52:56;;;;;;;11.82;5.20;;;;;;;12.29;100.00;101370.75;5024813;28;20343;-71
2023/07/06 01:55:35;;;;;;;7.35;4.25;;;;;;;12.29;100.00;101375.19;5037487;28;20233;-71
2023/07/06 01:58:04;;;;;;;5.13;4.55;;;;;;;12.25;100.00;101369.19;5024397;28;20517;-69
2023/07/06 02:00:34;;;;;;;6.75;4.57;;;;;;;12.21;100.00;101371.13;5023472;28;20519;-74
2023/07/06 02:03:05;;;;;;;6.03;4.43;;;;;;;12.19;100.00;101372.13;5044110;28;20029;-69
2023/07/06 02:05:33;;;;;;;6.43;4.57;;;;;;;12.12;100.00;101365.34;5023282;28;20148;-72
2023/07/06 02:07:59;;;;;;;6.55;4.13;;;;;;;12.20;100.00;101379.19;5027304;28;20491;-75
2023/07/06 02:10:25;;;;;;;7.05;4.22;;;;;;;12.22;100.00;101377.31;5039478;28;20033;-74
2023/07/06 02:12:51;;;;;;;8.80;4.80;;;;;;;12.17;100.00;101374.03;5041648;28;20074;-75
2023/07/06 02:15:18;;;;;;;8.27;4.45;;;;;;;12.13;100.00;101375.13;5043750;28;20116;-71
2023/07/06 02:17:46;;;;;;;6.53;4.22;;;;;;;12.05;100.00;101370.16;5026329;28;20024;-76
2023/07/06 02:20:12;;;;;;;5.65;4.38;;;;;;;11.98;100.00;101376.72;5038006;28;20029;-72
2023/07/06 02:22:39;;;;;;;7.15;4.47;;;;;;;11.96;100.00;101368.78;5027722;28;20095;-75
2023/07/06 02:25:05;;;;;;;7.15;4.43;;;;;;;11.84;100.00;101364.03;5044699;28;20056;-75
2023/07/06 02:27:32;;;;;;;7.43;4.45;;;;;;;11.80;100.00;101370.44;5044541;28;20099;-69
2023/07/06 02:29:59;;;;;;;7.47;4.63;;;;;;;11.76;100.00;101368.84;5041314;28;20063;-68
2023/07/06 02:32:25;;;;;;;6.68;4.40;;;;;;;11.81;100.00;101364.16;5039929;28;20237;-69
2023/07/06 02:34:51;;;;;;;8.60;4.53;;;;;;;11.82;100.00;101360.53;5039971;28;20044;-73
2023/07/06 02:37:16;;;;;;;13.95;4.85;;;;;;;11.86;100.00;101363.97;5034215;28;20028;-69
2023/07/06 02:39:41;;;;;;;6.03;4.40;;;;;;;11.82;100.00;101362.34;5043622;28;20037;-71
2023/07/06 02:42:07;;;;;;;8.13;4.70;;;;;;;11.84;100.00;101366.72;5044041;28;20060;-74
2023/07/06 02:44:33;;;;;;;9.40;4.50;;;;;;;11.80;100.00;101364.22;5044318;28;20032;-68
2023/07/06 02:46:58;;;;;;;7.38;4.50;;;;;;;11.73;100.00;101372.50;5038537;28;20446;-72
2023/07/06 02:49:23;;;;;;;8.68;4.22;;;;;;;11.71;100.00;101371.72;5037741;28;20028;-75
2023/07/06 02:51:49;;;;;;;7.30;4.75;;;;;;;11.65;100.00;101368.47;5034456;28;20591;-72
2023/07/06 02:54:15;;;;;;;7.95;4.07;;;;;;;11.66;100.00;101368.44;5035440;28;20024;-70
2023/07/06 02:56:41;;;;;;;10.18;4.70;;;;;;;11.59;100.00;101374.09;5036000;28;20044;-71
2023/07/06 02:59:08;;;;;;;7.93;4.45;;;;;;;11.62;100.00;101368.63;5029849;28;20025;-74
2023/07/06 03:01:34;;;;;;;8.80;4.75;;;;;;;11.57;100.00;101374.16;5038848;28;20029;-70
2023/07/06 03:03:59;;;;;;;8.48;5.15;;;;;;;11.56;100.00;101374.25;5030239;28;20193;-69
2023/07/06 03:06:25;;;;;;;8.48;4.55;;;;;;;11.56;100.00;101366.25;5039209;28;20028;-73
2023/07/06 03:08:50;;;;;;;8.32;4.43;;;;;;;11.51;100.00;101368.28;5040625;28;20033;-73
2023/07/06 03:11:17;;;;;;;6.20;4.35;;;;;;;11.52;100.00;101372.66;5033637;28;20025;-72
2023/07/06 03:13:42;;;;;;;7.88;4.88;;;;;;;11.52;100.00;101375.31;5037207;28;20029;-73
2023/07/06 03:16:08;;;;;;;8.02;4.72;;;;;;;11.48;100.00;101378.13;5038964;28;20031;-72
2023/07/06 03:18:34;;;;;;;8.30;4.40;;;;;;;11.44;100.00;101387.19;5030283;28;20040;-74
2023/07/06 03:21:00;;;;;;;8.45;4.75;;;;;;;11.45;100.00;101383.63;5034325;28;20026;-71
2023/07/06 03:23:27;;;;;;;10.20;4.90;;;;;;;11.42;100.00;101386.41;5036775;28;20029;-74
2023/07/06 03:25:53;;;;;;;8.23;5.20;;;;;;;11.42;100.00;101388.22;5039029;28;20031;-73
2023/07/06 03:28:20;;;;;;;9.13;5.00;;;;;;;11.43;100.00;101389.94;5038502;28;20029;-69
2023/07/06 03:30:46;;;;;;;7.82;4.60;;;;;;;11.39;100.00;101383.88;5034146;28;20108;-74
2023/07/06 03:33:11;;;;;;;11.70;5.60;;;;;;;11.45;100.00;101396.06;5035054;28;20132;-73
2023/07/06 03:35:41;;;;;;;8.35;5.25;;;;;;;11.45;100.00;101402.28;5040498;28;20182;-75
2023/07/06 03:38:06;;;;;;;8.57;5.35;;;;;;;11.43;100.00;101398.81;5042724;28;20025;-70
2023/07/06 03:40:35;;;;;;;8.50;5.10;;;;;;;11.40;100.00;101398.94;5039489;28;20274;-68
2023/07/06 03:43:01;;;;;;;8.13;5.40;;;;;;;11.46;100.00;101401.34;5032825;28;20108;-69
2023/07/06 03:45:30;;;;;;;6.32;4.75;;;;;;;11.41;100.00;101402.47;5040449;28;20047;-73
2023/07/06 03:47:55;;;;;;;8.80;5.32;;;;;;;11.47;100.00;101410.19;5029399;28;20076;-71
2023/07/06 03:50:21;;;;;;;10.65;5.35;;;;;;;11.46;100.00;101409.31;5038401;28;20041;-75
2023/07/06 03:52:47;;;;;;;8.15;5.13;;;;;;;11.47;100.00;101411.06;5038073;28;20368;-72
2023/07/06 03:55:19;;;;;;;8.77;5.07;;;;;;;11.51;100.00;101416.25;5040505;28;20036;-75
2023/07/06 03:57:45;;;;;;;7.93;5.38;;;;;;;11.49;100.00;101413.63;5027846;28;20017;-73
2023/07/06 04:00:22;;;;;;;8.38;5.47;;;;;;;11.48;100.00;101418.09;5037631;28;20028;-75
2023/07/06 04:02:55;;;;;;;8.05;4.90;;;;;;;11.50;100.00;101420.72;5036506;28;20029;-72
2023/07/06 04:05:32;;;;;;;8.25;5.32;;;;;;;11.55;100.00;101418.72;5039746;28;20510;-72
2023/07/06 04:08:03;;;;;;;8.02;5.00;;;;;;;11.62;100.00;101424.59;5028631;28;20021;-71
2023/07/06 04:10:30;;;;;;;8.27;4.88;;;;;;;11.61;100.00;101418.41;5027650;28;20112;-72
2023/07/06 04:12:56;;;;;;;9.88;5.20;;;;;;;11.61;100.00;101425.53;5032886;28;20025;-74
2023/07/06 04:15:22;;;;;;;8.30;4.75;;;;;;;11.64;100.00;101428.09;5039662;28;20022;-68
2023/07/06 04:17:48;;;;;;;9.43;4.93;;;;;;;11.66;100.00;101421.75;5028821;28;20445;-69
2023/07/06 04:20:19;;;;;;;10.32;5.78;;;;;;;11.63;100.00;101431.69;5039491;28;20715;-72
2023/07/06 04:22:49;;;;;;;10.25;4.72;;;;;;;11.66;100.00;101431.53;5024361;28;20052;-75
2023/07/06 04:25:18;;;;;;;7.20;4.70;;;;;;;11.71;100.00;101429.53;5024572;28;20017;-73
2023/07/06 04:27:44;;;;;;;7.38;5.03;;;;;;;11.70;100.00;101423.34;5058489;28;20120;-70
2023/07/06 04:30:14;;;;;;;9.38;4.93;;;;;;;11.75;100.00;101431.13;5039625;28;20104;-73
2023/07/06 04:32:41;;;;;;;7.32;4.82;;;;;;;11.77;100.00;101431.03;5024767;28;20033;-74
2023/07/06 04:35:11;;;;;;;7.25;4.45;;;;;;;11.78;100.00;101430.09;5037965;28;20037;-73
2023/07/06 04:37:36;;;;;;;8.38;5.53;;;;;;;11.76;100.00;101427.50;5024222;28;20032;-70
2023/07/06 04:40:11;;;;;;;8.95;5.20;;;;;;;11.71;100.00;101424.22;5026186;28;20037;-68
2023/07/06 04:42:37;;;;;;;9.43;5.05;;;;;;;11.77;100.00;101434.56;5039167;28;20025;-70
2023/07/06 04:45:09;;;;;;;10.55;5.50;;;;;;;11.77;100.00;101439.03;5040709;28;20267;-68
2023/07/06 04:47:38;;;;;;;8.77;5.05;;;;;;;11.78;100.00;101438.97;5037898;28;20041;-69
2023/07/06 04:50:04;;;;;;;8.18;4.75;;;;;;;11.83;100.00;101442.34;5033357;28;20116;-72
2023/07/06 04:52:31;;;;;;;9.48;4.95;;;;;;;11.88;100.00;101424.31;5040460;28;20029;-73
2023/07/06 04:54:59;;;;;;;9.18;4.82;;;;;;;11.95;100.00;101432.88;5031174;28;20056;-70
2023/07/06 04:57:25;;;;;;;8.70;4.70;;;;;;;12.05;100.00;101431.50;5023187;28;20036;-69
2023/07/06 04:59:50;;;;;;;9.20;5.45;;;;;;;12.11;100.00;101441.03;5034404;28;20089;-73
2023/07/06 05:02:16;;;;;;;8.57;5.32;;;;;;;12.15;100.00;101440.78;5041245;28;20112;-72
2023/07/06 05:04:41;;;;;;;9.95;5.30;;;;;;;12.19;100.00;101439.72;5040378;28;20576;-72
2023/07/06 05:07:07;;;;;;;10.57;4.90;;;;;;;12.14;100.00;101436.41;5036225;28;20035;-74
2023/07/06 05:09:35;;;;;;;11.38;4.60;;;;;;;12.21;100.00;101451.19;5044726;28;20061;-68
2023/07/06 05:12:00;;;;;;;11.10;5.90;;;;;;;12.19;100.00;101444.19;5035039;28;20026;-69
2023/07/06 05:14:26;;;;;;;11.68;5.43;;;;;;;12.27;100.00;101457.16;5035414;28;20086;-73
2023/07/06 05:16:51;;;;;;;11.02;5.43;;;;;;;12.24;100.00;101446.63;5026774;28;20029;-72
2023/07/06 05:19:17;;;;;;;13.13;5.90;;;;;;;12.31;100.00;101453.41;5024158;28;20105;-74
2023/07/06 05:21:42;;;;;;;10.40;5.40;;;;;;;12.38;100.00;101454.84;5023327;28;20406;-73
2023/07/06 05:24:08;;;;;;;10.80;5.30;;;;;;;12.47;100.00;101451.72;5038784;28;20029;-72
2023/07/06 05:26:33;;;;;;;12.88;5.80;;;;;;;12.62;100.00;101450.09;5031817;28;20029;-68
2023/07/06 05:28:59;;;;;;;10.43;5.50;;;;;;;12.78;100.00;101451.06;5033113;28;20032;-74
2023/07/06 05:31:26;;;;;;;11.00;5.82;;;;;;;12.84;100.00;101458.78;5028771;28;20517;-71
2023/07/06 05:33:51;;;;;;;13.13;5.65;;;;;;;12.95;100.00;101452.88;5055272;28;20028;-73
2023/07/06 05:36:17;;;;;;;12.43;6.50;;;;;;;13.13;100.00;101464.44;5032973;28;20282;-73
2023/07/06 05:38:42;;;;;;;13.35;6.88;;;;;;;13.23;100.00;101462.19;5036613;28;20549;-70
2023/07/06 05:41:08;;;;;;;14.45;6.30;;;;;;;13.32;100.00;101467.91;5030719;28;20117;-74
2023/07/06 05:43:36;;;;;;;12.23;6.68;;;;;;;13.37;100.00;101475.69;5027155;28;20479;-67
2023/07/06 05:46:01;;;;;;;12.30;6.20;;;;;;;13.40;100.00;101472.84;5026395;28;20555;-70
2023/07/06 05:48:27;;;;;;;11.48;5.88;;;;;;;13.44;100.00;101464.59;5035838;28;20068;-75
2023/07/06 05:50:52;;;;;;;12.23;6.55;;;;;;;13.49;100.00;101463.47;5031618;28;20604;-76
2023/07/06 05:53:17;;;;;;;13.43;6.28;;;;;;;13.55;100.00;101473.88;5026553;28;20017;-69
2023/07/06 05:55:43;;;;;;;13.35;6.32;;;;;;;13.59;100.00;101470.09;5029222;28;20043;-73
2023/07/06 05:58:13;;;;;;;11.73;6.32;;;;;;;13.59;100.00;101472.75;5023030;28;20034;-73
2023/07/06 06:00:39;;;;;;;13.55;6.07;;;;;;;13.67;100.00;101478.56;5030534;28;20016;-74
2023/07/06 06:03:05;;;;;;;14.35;7.05;;;;;;;13.70;100.00;101473.88;5034890;28;20037;-74
2023/07/06 06:05:31;;;;;;;13.20;6.38;;;;;;;13.67;100.00;101479.44;5034172;28;20036;-77
2023/07/06 06:07:58;;;;;;;14.38;7.43;;;;;;;13.75;100.00;101487.00;5032439;28;20032;-74
2023/07/06 06:10:23;;;;;;;16.77;7.88;;;;;;;13.78;100.00;101486.84;5037512;28;20473;-68
2023/07/06 06:12:49;;;;;;;13.13;7.47;;;;;;;13.89;100.00;101488.97;5038598;28;20025;-71
2023/07/06 06:15:15;;;;;;;14.63;7.50;;;;;;;14.06;100.00;101480.88;5035676;28;20029;-73
2023/07/06 06:17:43;;;;;;;12.80;6.88;;;;;;;14.23;98.97;101485.28;5047562;28;20036;-71
2023/07/06 06:20:08;;;;;;;11.82;7.15;;;;;;;14.33;100.00;101483.81;5030119;28;20047;-73
2023/07/06 06:22:34;;;;;;;13.70;7.60;;;;;;;14.43;99.64;101487.72;5030548;28;20029;-68
2023/07/06 06:25:01;;;;;;;20.65;8.18;;;;;;;14.62;100.00;101490.22;5028763;28;20048;-71
2023/07/06 06:27:28;;;;;;;14.23;7.57;;;;;;;14.78;98.86;101490.19;5027966;28;20057;-74
2023/07/06 06:29:54;;;;;;;11.32;7.68;;;;;;;14.99;97.46;101492.59;5030794;28;20119;-72
2023/07/06 06:32:19;;;;;;;13.60;7.93;;;;;;;15.04;96.27;101495.84;5039403;28;20032;-71
2023/07/06 06:34:45;;;;;;;12.32;7.38;;;;;;;15.19;96.67;101490.44;5040609;28;20483;-76
2023/07/06 06:37:11;;;;;;;13.32;7.22;;;;;;;15.43;94.85;101503.34;5033095;28;20511;-70
2023/07/06 06:39:39;;;;;;;14.88;7.25;;;;;;;15.41;94.95;101510.59;5037072;28;20452;-74
2023/07/06 06:42:04;;;;;;;15.57;7.03;;;;;;;15.39;94.27;101504.47;5034387;28;20029;-69
2023/07/06 06:44:30;;;;;;;40.15;10.40;;;;;;;15.62;94.63;101508.44;5030180;28;20025;-69
2023/07/06 06:47:00;;;;;;;16.48;7.22;;;;;;;15.77;94.96;101514.72;5035067;28;20499;-69
2023/07/06 06:49:25;;;;;;;15.02;6.63;;;;;;;15.88;92.57;101513.09;5026722;28;20090;-72
2023/07/06 06:51:50;;;;;;;15.35;7.50;;;;;;;15.93;92.82;101508.31;5030240;28;20025;-73
2023/07/06 06:54:16;;;;;;;12.45;6.32;;;;;;;16.23;92.08;101520.75;5037263;28;20363;-69
2023/07/06 06:56:41;;;;;;;16.02;7.55;;;;;;;16.31;91.65;101512.19;5035945;28;20051;-70
2023/07/06 06:59:11;;;;;;;15.00;6.78;;;;;;;16.54;90.95;101508.88;5037049;28;20644;-75
2023/07/06 07:01:37;;;;;;;13.75;7.25;;;;;;;16.59;89.38;101516.63;5041211;28;20045;-74
2023/07/06 07:04:02;;;;;;;13.05;7.13;;;;;;;16.63;88.86;101523.53;5043122;28;20025;-72
2023/07/06 07:06:29;;;;;;;13.02;6.68;;;;;;;16.98;88.59;101520.38;5050858;28;20393;-71
2023/07/06 07:08:54;;;;;;;16.23;7.80;;;;;;;17.02;86.58;101525.44;5039923;28;20343;-69
2023/07/06 07:11:21;;;;;;;12.73;7.13;;;;;;;16.87;86.23;101527.31;5048151;28;20017;-69
2023/07/06 07:13:48;;;;;;;13.50;7.28;;;;;;;16.76;87.39;101529.88;5041497;28;20032;-73
2023/07/06 07:16:14;;;;;;;17.70;7.65;;;;;;;16.80;87.89;101534.06;5034703;28;20045;-73
2023/07/06 07:18:40;;;;;;;13.40;7.63;;;;;;;17.00;86.17;101539.94;5041757;28;20502;-73
2023/07/06 07:21:07;;;;;;;14.90;8.40;;;;;;;17.01;86.21;101538.97;5027893;28;20029;-70
2023/07/06 07:23:43;;;;;;;12.30;8.02;;;;;;;17.05;85.32;101541.34;5034901;28;21694;-72
2023/07/06 07:26:10;;;;;;;14.23;8.88;;;;;;;17.29;85.96;101544.22;5048107;28;20029;-72
2023/07/06 07:28:37;;;;;;;16.55;8.18;;;;;;;17.46;85.12;101548.47;5034417;28;20017;-72
2023/07/06 07:31:03;;;;;;;19.00;9.10;;;;;;;17.47;84.65;101535.84;5045554;28;20069;-73
2023/07/06 07:33:28;;;;;;;14.75;9.48;;;;;;;17.56;84.07;101543.31;5030314;28;20062;-69
2023/07/06 07:35:57;;;;;;;15.90;9.30;;;;;;;17.83;83.57;101554.03;5038724;28;20560;-73
2023/07/06 07:38:24;;;;;;;15.82;10.07;;;;;;;18.19;82.46;101555.09;5044480;28;20047;-72
2023/07/06 07:40:57;;;;;;;17.70;10.10;;;;;;;18.79;79.85;101559.69;5053519;28;20024;-74
2023/07/06 07:43:29;;;;;;;15.05;9.77;;;;;;;19.18;77.38;101558.53;5036322;28;20029;-74
2023/07/06 07:45:56;;;;;;;17.30;9.52;;;;;;;19.15;75.77;101558.78;5031878;28;20123;-72
2023/07/06 07:48:23;;;;;;;18.52;9.60;;;;;;;18.73;76.31;101552.94;5042589;28;20048;-71
2023/07/06 07:50:53;;;;;;;14.43;9.48;;;;;;;18.54;77.08;101560.63;5036353;28;20033;-71
2023/07/06 07:53:22;;;;;;;14.73;9.70;;;;;;;18.52;77.70;101565.25;5038670;28;20035;-74
2023/07/06 07:55:48;;;;;;;15.05;8.88;;;;;;;18.24;79.96;101556.47;5039054;28;20455;-71
2023/07/06 07:58:14;;;;;;;17.38;9.65;;;;;;;18.02;80.27;101564.38;5042516;28;20652;-69
2023/07/06 08:00:39;;;;;;;17.52;10.18;;;;;;;18.62;78.24;101561.78;5039752;28;20033;-71
2023/07/06 08:03:05;;;;;;;14.55;9.18;;;;;;;19.03;77.16;101557.88;5044209;28;20086;-72
2023/07/06 08:05:31;;;;;;;16.13;9.00;;;;;;;18.96;76.43;101556.59;5044223;28;20102;-70
2023/07/06 08:07:57;;;;;;;14.15;9.23;;;;;;;18.66;77.19;101555.19;5043281;28;20029;-73
2023/07/06 08:10:23;;;;;;;17.38;9.52;;;;;;;18.67;77.76;101561.44;5043037;28;20035;-72
2023/07/06 08:12:49;;;;;;;15.63;8.32;;;;;;;19.82;75.00;101561.72;5041873;28;20167;-74
2023/07/06 08:15:15;;;;;;;19.52;9.10;;;;;;;21.13;68.82;101560.13;5031497;28;20028;-70
2023/07/06 08:17:41;;;;;;;19.13;9.27;;;;;;;21.63;66.64;101574.81;5039149;28;20078;-73
2023/07/06 08:20:10;;;;;;;13.98;7.35;;;;;;;22.53;62.20;101567.84;5044212;28;20079;-73
2023/07/06 08:22:36;;;;;;;12.45;7.38;;;;;;;21.91;63.17;101572.44;5044782;28;20035;-75
2023/07/06 08:25:02;;;;;;;104.78;15.55;;;;;;;22.34;62.07;101571.38;5036465;28;20030;-70
2023/07/06 08:27:30;;;;;;;13.32;6.97;;;;;;;22.93;60.95;101569.72;5036959;28;20033;-72
2023/07/06 08:29:55;;;;;;;14.52;6.75;;;;;;;24.25;56.91;101580.75;5037070;28;20024;-71
2023/07/06 08:32:22;;;;;;;19.30;6.55;;;;;;;25.39;54.29;101578.50;5039761;28;20564;-69
2023/07/06 08:34:47;;;;;;;18.58;6.50;;;;;;;25.61;50.73;101577.13;5038742;28;20029;-71
2023/07/06 08:37:13;;;;;;;14.82;6.00;;;;;;;24.23;53.24;101581.88;5034359;28;20323;-71
2023/07/06 08:39:39;;;;;;;8.48;5.28;;;;;;;22.94;56.01;101590.41;5030951;28;20280;-69
2023/07/06 08:42:09;;;;;;;12.52;5.53;;;;;;;23.52;56.21;101593.16;5038913;28;20547;-68
2023/07/06 08:44:36;;;;;;;15.25;6.05;;;;;;;24.58;53.40;101589.34;5035730;28;20086;-67
2023/07/06 08:47:04;;;;;;;12.93;5.35;;;;;;;25.71;50.93;101586.09;5037185;28;20057;-70
2023/07/06 08:49:33;;;;;;;8.65;5.13;;;;;;;24.97;50.43;101592.69;5033068;28;20064;-72
2023/07/06 08:52:02;;;;;;;11.57;5.35;;;;;;;24.43;52.88;101594.44;5040905;28;20325;-72
2023/07/06 08:54:29;;;;;;;11.85;5.50;;;;;;;23.60;54.06;101590.59;5042916;28;20268;-72
2023/07/06 08:56:56;;;;;;;13.95;5.10;;;;;;;23.27;55.40;101590.03;5046400;28;20085;-71
2023/07/06 08:59:40;;;;;;;13.80;5.50;;;;;;;23.72;57.20;101586.75;5049869;28;20152;-72
2023/07/06 09:02:28;;;;;;;12.10;4.93;;;;;;;23.93;54.30;101600.16;5041653;28;20233;-70
2023/07/06 09:04:56;;;;;;;12.18;4.95;;;;;;;24.50;52.71;101594.69;5031190;28;20028;-70
2023/07/06 09:07:34;;;;;;;9.60;4.40;;;;;;;24.25;52.69;101602.50;5041957;28;20068;-71
2023/07/06 09:10:01;;;;;;;7.97;3.90;;;;;;;23.26;53.69;101593.75;5036050;28;20525;-72
2023/07/06 09:12:36;;;;;;;8.00;4.00;;;;;;;22.53;55.79;101605.84;5042714;28;20021;-69
2023/07/06 09:15:03;;;;;;;8.05;4.38;;;;;;;23.95;54.03;101600.84;5033793;28;20167;-70
2023/07/06 09:17:30;;;;;;;10.02;3.80;;;;;;;25.92;48.07;101599.41;5038123;28;20551;-71
2023/07/06 09:19:56;;;;;;;8.32;3.65;;;;;;;27.28;44.59;101590.25;5041887;28;20064;-70
2023/07/06 09:22:23;;;;;;;7.85;3.97;;;;;;;27.87;41.17;101592.84;5037860;28;20053;-70
2023/07/06 09:24:50;;;;;;;10.73;3.22;;;;;;;27.50;41.56;101601.53;5035468;28;20032;-71
2023/07/06 09:27:26;;;;;;;7.57;3.38;;;;;;;28.48;42.41;101607.78;5036006;28;20028;-73
2023/07/06 09:30:18;;;;;;;9.23;3.60;;;;;;;27.70;42.71;101605.66;5044133;28;20252;-72
2023/07/06 09:32:44;;;;;;;8.02;3.70;;;;;;;25.89;45.45;101605.16;5030396;28;20028;-74
2023/07/06 09:35:20;;;;;;;8.63;3.33;;;;;;;25.81;46.84;101616.88;5039400;28;20758;-73
2023/07/06 09:37:47;;;;;;;5.90;3.05;;;;;;;27.21;42.60;101612.97;5041307;28;20514;-71
2023/07/06 09:40:14;;;;;;;7.60;2.95;;;;;;;28.34;40.05;101615.81;5038154;28;20056;-74
2023/07/06 09:42:40;;;;;;;7.63;3.17;;;;;;;29.45;38.02;101599.19;5044597;28;20033;-70
2023/07/06 09:45:20;;;;;;;7.38;3.30;;;;;;;30.46;37.29;101609.69;5037024;28;20549;-73
2023/07/06 09:47:52;;;;;;;6.57;2.60;;;;;;;29.72;35.38;101604.13;5030872;28;20036;-72
2023/07/06 09:50:22;;;;;;;7.03;2.60;;;;;;;29.99;35.62;101613.63;5049945;28;20242;-70
2023/07/06 09:52:48;;;;;;;4.97;2.50;;;;;;;30.88;34.51;101618.31;5042868;28;20035;-74
2023/07/06 09:55:23;;;;;;;6.72;2.78;;;;;;;31.52;34.13;101621.16;5033142;28;20391;-75
2023/07/06 09:57:49;;;;;;;6.40;2.60;;;;;;;31.83;31.06;101612.53;5035639;28;20475;-73
2023/07/06 10:00:22;;;;;;;7.55;2.70;;;;;;;32.42;32.41;101617.63;5051393;28;20147;-74
2023/07/06 10:02:56;;;;;;;;;;;;;;;33.65;31.02;101612.97;5043287;28;20264;-72
2023/07/06 10:06:07;;;;;;;5.10;2.28;;;;;;;32.31;33.11;101615.41;5050888;28;20194;-71
2023/07/06 10:08:56;;;;;;;6.13;2.63;;;;;;;32.49;32.54;101614.94;5034080;28;20145;-71
2023/07/06 10:11:45;;;;;;;9.55;3.13;;;;;;;32.63;29.51;101613.94;5032776;28;20098;-71
2023/07/06 10:14:29;;;;;;;4.30;2.30;;;;;;;33.12;30.61;101604.59;5044125;28;20101;-70
2023/07/06 10:17:18;;;;;;;4.85;2.30;;;;;;;33.73;28.26;101614.66;5030958;28;20391;-69
2023/07/06 10:19:49;;;;;;;6.25;2.47;;;;;;;33.79;27.71;101604.69;5033576;28;20465;-71
2023/07/06 10:22:38;;;;;;;5.35;2.25;;;;;;;33.24;28.24;101604.00;5033706;28;20029;-71
2023/07/06 10:25:33;;;;;;;4.40;2.50;;;;;;;32.64;28.47;101606.50;5038361;28;20037;-71
2023/07/06 10:28:11;;;;;;;7.32;2.42;;;;;;;31.29;31.04;101607.59;5035173;28;20028;-70
2023/07/06 10:30:44;;;;;;;6.28;2.35;;;;;;;31.79;29.83;101605.72;5042466;28;20035;-69
2023/07/06 10:33:17;;;;;;;3.90;2.13;;;;;;;33.18;28.51;101597.38;5048742;28;20040;-68
2023/07/06 10:35:46;;;;;;;3.42;1.85;;;;;;;34.65;26.72;101597.09;5039974;28;20017;-72
2023/07/06 10:38:12;;;;;;;4.03;1.80;;;;;;;34.91;25.26;101601.66;5040883;28;20024;-73
2023/07/06 10:40:38;;;;;;;3.78;1.92;;;;;;;35.44;24.69;101606.88;5039972;28;20032;-70
2023/07/06 10:43:13;;;;;;;6.03;1.90;;;;;;;35.71;24.36;101600.31;5043486;28;20048;-69
2023/07/06 10:45:48;;;;;;;5.00;2.15;;;;;;;33.77;25.57;101607.66;5028938;28;20125;-71
2023/07/06 10:48:34;;;;;;;5.15;2.17;;;;;;;31.51;28.97;101600.16;5044348;28;20045;-71
2023/07/06 10:51:18;;;;;;;4.85;2.20;;;;;;;30.29;31.48;101602.69;5044327;28;20052;-68
2023/07/06 10:53:48;;;;;;;4.13;1.90;;;;;;;31.26;30.32;101600.53;5032771;28;20056;-70
2023/07/06 10:56:19;;;;;;;5.15;1.98;;;;;;;32.16;28.34;101604.53;5037677;28;20036;-73
2023/07/06 10:58:52;;;;;;;5.57;2.28;;;;;;;31.96;28.95;101600.78;5044754;28;20031;-73
2023/07/06 11:01:19;;;;;;;3.70;1.63;;;;;;;32.67;26.26;101608.88;5040083;28;20049;-72
2023/07/06 11:03:46;;;;;;;4.65;2.40;;;;;;;32.94;27.14;101618.09;5039840;28;20196;-74
2023/07/06 11:06:38;;;;;;;4.65;2.17;;;;;;;34.15;26.44;101607.00;5050351;28;20052;-73
2023/07/06 11:09:07;;;;;;;3.38;1.70;;;;;;;33.76;25.55;101600.44;5033738;28;20041;-68
2023/07/06 11:11:54;;;;;;;4.10;1.55;;;;;;;33.16;26.61;101625.19;5042745;28;20029;-72
2023/07/06 11:14:31;;;;;;;3.60;1.80;;;;;;;32.63;25.06;101624.09;5033612;28;20127;-72
2023/07/06 11:17:13;;;;;;;2.42;1.40;;;;;;;32.98;24.76;101619.38;5047606;28;20036;-69
2023/07/06 11:19:44;;;;;;;2.95;1.63;;;;;;;33.35;23.94;101606.13;5041609;28;20247;-72
2023/07/06 11:22:16;;;;;;;3.35;1.80;;;;;;;34.36;24.40;101608.66;5044988;28;20029;-71
2023/07/06 11:24:48;;;;;;;;;;;;;;;36.71;23.60;101614.00;5037002;28;20142;-69
2023/07/06 11:27:30;;;;;;;2.47;1.60;;;;;;;36.56;22.11;101612.47;5033301;28;19917;-71
2023/07/06 11:30:03;;;;;;;2.95;1.75;;;;;;;35.53;22.57;101620.47;5038610;28;20029;-68
2023/07/06 11:32:37;;;;;;;;;;;;;;;36.80;22.89;101613.44;5046822;28;20024;-72